Time;durP1;ratioP1;P1;durP2;ratioP2;P2;SDS_P1;SDS_P2;PMS_P1;PMS_P2;Temp;Humidity;BMP_temperature;BMP_pressure;BME280_temperature;BME280_humidity;BME280_pressure;Samples;Min_cycle;Max_cycle;Signal;HPM_P1;HPM_P2
2021/10/16 00:01:00;;;;;;;;;18.50;16.00;;;;;;;;5079325;27;45453;-82
2021/10/16 00:03:25;;;;;;;;;19.50;16.00;;;;;;;;5073414;27;45388;-81
2021/10/16 00:05:50;;;;;;;;;19.00;18.50;;;;;;;;5080663;27;45234;-81
2021/10/16 00:08:16;;;;;;;;;17.50;13.50;;;;;;;;5079317;27;45474;-81
2021/10/16 00:10:41;;;;;;;;;19.75;17.25;;;;;;;;5078648;27;45454;-81
2021/10/16 00:13:06;;;;;;;;;21.25;19.25;;;;;;;;5078881;27;46297;-81
2021/10/16 00:15:31;;;;;;;;;29.25;22.00;;;;;;;;5074665;27;45356;-81
2021/10/16 00:17:57;;;;;;;;;27.50;21.25;;;;;;;;5079413;27;45196;-81
2021/10/16 00:20:23;;;;;;;;;30.50;28.50;;;;;;;;5078268;27;45194;-80
2021/10/16 00:22:48;;;;;;;;;38.00;31.75;;;;;;;;5078460;27;45461;-80
2021/10/16 00:25:13;;;;;;;;;37.75;33.25;;;;;;;;5078378;27;45463;-81
2021/10/16 00:27:38;;;;;;;;;49.00;37.00;;;;;;;;5076941;27;45418;-80
2021/10/16 00:30:04;;;;;;;;;46.50;38.75;;;;;;;;5078062;27;45541;-80
2021/10/16 00:32:29;;;;;;;;;47.75;38.75;;;;;;;;5078038;27;46209;-81
2021/10/16 00:34:54;;;;;;;;;47.00;39.00;;;;;;;;5078508;27;45481;-82
2021/10/16 00:37:22;;;;;;;;;48.25;38.50;;;;;;;;5078817;27;45455;-82
2021/10/16 00:39:47;;;;;;;;;48.50;39.25;;;;;;;;5077397;27;45513;-82
2021/10/16 00:42:12;;;;;;;;;39.00;36.25;;;;;;;;5075043;27;46205;-82
2021/10/16 00:44:37;;;;;;;;;43.75;37.75;;;;;;;;5078798;27;45387;-82
2021/10/16 00:47:03;;;;;;;;;41.75;35.50;;;;;;;;5077323;27;45408;-82
2021/10/16 00:49:28;;;;;;;;;38.75;31.50;;;;;;;;5078705;27;45479;-82
2021/10/16 00:51:54;;;;;;;;;31.25;27.00;;;;;;;;5078011;27;46474;-82
2021/10/16 00:54:21;;;;;;;;;15.00;15.00;;;;;;;;5073709;27;45438;-82
2021/10/16 00:56:48;;;;;;;;;13.75;11.75;;;;;;;;5081074;27;45320;-82
2021/10/16 00:59:13;;;;;;;;;15.00;13.00;;;;;;;;5081304;27;45367;-82
2021/10/16 01:01:38;;;;;;;;;15.00;14.00;;;;;;;;5083781;27;46045;-82
2021/10/16 01:04:05;;;;;;;;;20.00;15.00;;;;;;;;5088746;27;45240;-82
2021/10/16 01:06:31;;;;;;;;;17.50;12.00;;;;;;;;5075290;27;45328;-82
2021/10/16 01:08:57;;;;;;;;;11.00;11.00;;;;;;;;5066453;28;45293;-82
2021/10/16 01:11:32;;;;;;;;;16.75;13.00;;;;;;;;5077424;27;45419;-82
2021/10/16 01:13:58;;;;;;;;;11.00;10.00;;;;;;;;5087342;27;45437;-82
2021/10/16 01:16:23;;;;;;;;;13.50;11.50;;;;;;;;5086025;27;45327;-82
2021/10/16 01:18:48;;;;;;;;;14.00;13.00;;;;;;;;5077439;27;45496;-82
2021/10/16 01:21:13;;;;;;;;;11.00;10.50;;;;;;;;5074311;27;46456;-82
2021/10/16 01:23:39;;;;;;;;;12.75;12.25;;;;;;;;5093153;27;45308;-82
2021/10/16 01:26:04;;;;;;;;;12.00;11.50;;;;;;;;5078455;27;45394;-82
2021/10/16 01:28:29;;;;;;;;;11.25;10.00;;;;;;;;5078043;27;45297;-82
2021/10/16 01:30:56;;;;;;;;;8.25;8.25;;;;;;;;5076727;27;45599;-82
2021/10/16 01:33:21;;;;;;;;;16.75;11.50;;;;;;;;5056710;28;45399;-81
2021/10/16 01:35:56;;;;;;;;;17.75;14.25;;;;;;;;5079926;27;45223;-81
2021/10/16 01:38:21;;;;;;;;;11.00;11.00;;;;;;;;5077046;27;45178;-80
2021/10/16 01:40:47;;;;;;;;;13.50;12.50;;;;;;;;5077644;27;45481;-80
2021/10/16 01:43:12;;;;;;;;;11.00;10.50;;;;;;;;5077893;27;45322;-81
2021/10/16 01:45:37;;;;;;;;;14.00;11.25;;;;;;;;5075669;27;45384;-82
2021/10/16 01:48:02;;;;;;;;;16.00;11.00;;;;;;;;5077267;27;45208;-81
2021/10/16 01:50:35;;;;;;;;;16.00;13.25;;;;;;;;5084053;27;46858;-81
2021/10/16 01:53:06;;;;;;;;;11.00;10.75;;;;;;;;5080899;27;45507;-81
2021/10/16 01:55:31;;;;;;;;;13.00;11.00;;;;;;;;5079085;27;45383;-81
2021/10/16 01:58:02;;;;;;;;;9.25;9.25;;;;;;;;5077996;27;45536;-81
2021/10/16 02:00:28;;;;;;;;;10.00;9.75;;;;;;;;5072205;27;45440;-81
2021/10/16 02:02:53;;;;;;;;;12.00;11.25;;;;;;;;5078815;27;45186;-81
2021/10/16 02:05:18;;;;;;;;;15.00;10.25;;;;;;;;5076563;27;45247;-82
2021/10/16 02:07:44;;;;;;;;;12.00;9.25;;;;;;;;5077278;27;45414;-82
2021/10/16 02:10:09;;;;;;;;;10.00;10.00;;;;;;;;5081190;27;47069;-81
2021/10/16 02:12:34;;;;;;;;;12.75;10.75;;;;;;;;5076873;27;45490;-81
2021/10/16 02:15:00;;;;;;;;;11.50;11.50;;;;;;;;5094734;27;45386;-82
2021/10/16 02:17:25;;;;;;;;;10.00;10.00;;;;;;;;5079817;27;45416;-82
2021/10/16 02:19:51;;;;;;;;;11.50;9.75;;;;;;;;5081189;27;46727;-82
2021/10/16 02:22:16;;;;;;;;;12.25;10.00;;;;;;;;5080577;27;45485;-81
2021/10/16 02:24:41;;;;;;;;;10.75;9.00;;;;;;;;5079272;27;45441;-81
2021/10/16 02:27:06;;;;;;;;;9.75;9.00;;;;;;;;5078605;27;45405;-81
2021/10/16 02:29:32;;;;;;;;;9.25;9.25;;;;;;;;5082536;27;46250;-81
2021/10/16 02:31:57;;;;;;;;;9.00;8.00;;;;;;;;5080520;27;45501;-82
2021/10/16 02:34:22;;;;;;;;;10.00;9.25;;;;;;;;5079673;27;45342;-82
2021/10/16 02:36:47;;;;;;;;;13.25;9.75;;;;;;;;5079292;27;45545;-81
2021/10/16 02:39:13;;;;;;;;;9.75;8.50;;;;;;;;5077151;27;47318;-80
2021/10/16 02:41:38;;;;;;;;;11.75;11.75;;;;;;;;5082758;27;45355;-81
2021/10/16 02:44:03;;;;;;;;;7.50;7.50;;;;;;;;5080801;27;45394;-82
2021/10/16 02:46:29;;;;;;;;;13.75;11.00;;;;;;;;5091276;27;45309;-81
2021/10/16 02:48:54;;;;;;;;;10.50;9.50;;;;;;;;5098466;27;45414;-81
2021/10/16 02:51:19;;;;;;;;;12.00;11.00;;;;;;;;5075962;27;45457;-82
2021/10/16 02:53:44;;;;;;;;;15.00;15.00;;;;;;;;5082779;27;46033;-81
2021/10/16 02:56:09;;;;;;;;;10.75;10.00;;;;;;;;5080536;27;45200;-81
2021/10/16 02:58:34;;;;;;;;;12.75;11.50;;;;;;;;5080284;27;46261;-81
2021/10/16 03:01:00;;;;;;;;;11.00;11.00;;;;;;;;5080445;27;45429;-81
2021/10/16 03:03:25;;;;;;;;;11.25;11.25;;;;;;;;5076395;27;45375;-83
2021/10/16 03:05:50;;;;;;;;;15.00;12.50;;;;;;;;5081839;27;45447;-82
2021/10/16 03:08:15;;;;;;;;;10.00;10.00;;;;;;;;5080095;27;46247;-82
2021/10/16 03:10:43;;;;;;;;;13.75;12.50;;;;;;;;5080013;27;45364;-81
2021/10/16 03:13:08;;;;;;;;;10.00;9.25;;;;;;;;5078683;27;45393;-81
2021/10/16 03:15:33;;;;;;;;;14.75;13.25;;;;;;;;5077231;27;45551;-81
2021/10/16 03:17:58;;;;;;;;;11.50;8.25;;;;;;;;5079126;27;46319;-82
2021/10/16 03:20:24;;;;;;;;;14.25;13.00;;;;;;;;5079141;27;45400;-82
2021/10/16 03:22:49;;;;;;;;;12.50;12.25;;;;;;;;5078076;27;45392;-81
2021/10/16 03:25:14;;;;;;;;;13.00;10.50;;;;;;;;5079432;27;45550;-82
2021/10/16 03:27:39;;;;;;;;;10.25;10.25;;;;;;;;5077177;27;46219;-81
2021/10/16 03:30:05;;;;;;;;;14.50;11.25;;;;;;;;5077417;27;45341;-80
2021/10/16 03:32:30;;;;;;;;;12.00;11.00;;;;;;;;5081604;27;45517;-82
2021/10/16 03:34:55;;;;;;;;;16.50;14.75;;;;;;;;5079537;27;45474;-80
2021/10/16 03:37:20;;;;;;;;;16.00;14.50;;;;;;;;5079705;27;46238;-80
2021/10/16 03:39:46;;;;;;;;;11.25;11.25;;;;;;;;5078505;27;45351;-81
2021/10/16 03:42:11;;;;;;;;;10.00;10.00;;;;;;;;5076470;27;45406;-80
2021/10/16 03:44:36;;;;;;;;;13.00;12.50;;;;;;;;5081876;27;45500;-81
2021/10/16 03:47:01;;;;;;;;;14.00;13.00;;;;;;;;5079249;27;46125;-81
2021/10/16 03:49:26;;;;;;;;;14.75;12.00;;;;;;;;5078937;27;45371;-81
2021/10/16 03:51:52;;;;;;;;;15.00;12.75;;;;;;;;5079542;27;45326;-81
2021/10/16 03:54:17;;;;;;;;;10.75;10.50;;;;;;;;5075476;27;45593;-81
2021/10/16 03:56:42;;;;;;;;;13.50;12.25;;;;;;;;5081579;27;46112;-81
2021/10/16 03:59:07;;;;;;;;;15.25;13.50;;;;;;;;5077677;27;45282;-82
2021/10/16 04:01:32;;;;;;;;;12.50;10.00;;;;;;;;5077891;27;45482;-81
2021/10/16 04:03:58;;;;;;;;;13.25;10.00;;;;;;;;5079078;27;45272;-81
2021/10/16 04:06:23;;;;;;;;;17.25;14.25;;;;;;;;5074653;27;46385;-81
2021/10/16 04:08:48;;;;;;;;;12.50;12.50;;;;;;;;5081187;27;45527;-81
2021/10/16 04:11:13;;;;;;;;;12.50;12.50;;;;;;;;5078747;27;45319;-81
2021/10/16 04:13:38;;;;;;;;;15.50;14.00;;;;;;;;5078906;27;45298;-80
2021/10/16 04:16:04;;;;;;;;;10.50;10.50;;;;;;;;5078557;27;47158;-81
2021/10/16 04:18:29;;;;;;;;;13.00;12.00;;;;;;;;5075334;27;45526;-81
2021/10/16 04:20:54;;;;;;;;;14.75;13.00;;;;;;;;5079958;27;45376;-81
2021/10/16 04:23:19;;;;;;;;;12.75;12.75;;;;;;;;5079330;27;45525;-81
2021/10/16 04:25:44;;;;;;;;;11.75;11.50;;;;;;;;5078615;27;46908;-81
2021/10/16 04:28:10;;;;;;;;;12.50;10.25;;;;;;;;5078529;27;45430;-81
2021/10/16 04:30:35;;;;;;;;;14.50;11.75;;;;;;;;5074208;27;45458;-79
2021/10/16 04:33:00;;;;;;;;;17.25;9.75;;;;;;;;5077678;27;45315;-79
2021/10/16 04:35:25;;;;;;;;;8.00;8.00;;;;;;;;5079461;27;46367;-79
2021/10/16 04:37:51;;;;;;;;;14.75;11.50;;;;;;;;5076984;27;45454;-79
2021/10/16 04:40:22;;;;;;;;;13.75;13.00;;;;;;;;5078397;27;45158;-79
2021/10/16 04:42:49;;;;;;;;;14.25;11.50;;;;;;;;5077821;27;45411;-79
2021/10/16 04:45:14;;;;;;;;;12.75;11.75;;;;;;;;5074698;27;46248;-79
2021/10/16 04:47:40;;;;;;;;;15.50;10.25;;;;;;;;5080211;27;45309;-79
2021/10/16 04:50:06;;;;;;;;;17.25;13.50;;;;;;;;5078369;27;45457;-79
2021/10/16 04:52:31;;;;;;;;;12.25;11.25;;;;;;;;5078843;27;45613;-79
2021/10/16 04:54:57;;;;;;;;;12.00;10.50;;;;;;;;5078164;27;47104;-79
2021/10/16 04:57:22;;;;;;;;;9.25;9.25;;;;;;;;5073947;28;45609;-79
2021/10/16 04:59:47;;;;;;;;;11.25;11.25;;;;;;;;5080276;27;45347;-80
2021/10/16 05:02:12;;;;;;;;;14.00;12.25;;;;;;;;5078007;27;45517;-80
2021/10/16 05:04:37;;;;;;;;;14.25;13.00;;;;;;;;5077936;27;46255;-80
2021/10/16 05:07:03;;;;;;;;;16.25;16.25;;;;;;;;5078326;27;45872;-80
2021/10/16 05:09:29;;;;;;;;;13.25;12.00;;;;;;;;5074712;27;45600;-80
2021/10/16 05:11:54;;;;;;;;;13.25;11.00;;;;;;;;5078480;27;45412;-81
2021/10/16 05:14:19;;;;;;;;;11.50;10.00;;;;;;;;5078663;27;45354;-81
2021/10/16 05:16:44;;;;;;;;;16.25;15.25;;;;;;;;5076412;27;45543;-79
2021/10/16 05:19:10;;;;;;;;;17.75;17.00;;;;;;;;5076768;27;45347;-78
2021/10/16 05:21:35;;;;;;;;;14.25;13.25;;;;;;;;5075534;27;45712;-79
2021/10/16 05:24:00;;;;;;;;;13.25;10.00;;;;;;;;5076982;27;46321;-79
2021/10/16 05:26:26;;;;;;;;;11.00;11.00;;;;;;;;5076599;27;45501;-79
2021/10/16 05:28:55;;;;;;;;;12.75;12.75;;;;;;;;5085961;27;45504;-79
2021/10/16 05:31:20;;;;;;;;;14.75;14.00;;;;;;;;5085502;27;45284;-79
2021/10/16 05:33:45;;;;;;;;;15.00;14.00;;;;;;;;5076254;27;45263;-79
2021/10/16 05:36:10;;;;;;;;;15.25;14.00;;;;;;;;5074908;27;45305;-79
2021/10/16 05:38:35;;;;;;;;;16.00;12.75;;;;;;;;5079607;27;45283;-79
2021/10/16 05:41:01;;;;;;;;;17.50;15.00;;;;;;;;5076884;27;45468;-79
2021/10/16 05:43:26;;;;;;;;;17.50;15.25;;;;;;;;5077008;27;45491;-79
2021/10/16 05:45:51;;;;;;;;;15.25;14.25;;;;;;;;5076416;27;45341;-80
2021/10/16 05:48:16;;;;;;;;;24.00;18.25;;;;;;;;5072045;27;45495;-79
2021/10/16 05:50:42;;;;;;;;;26.50;22.75;;;;;;;;5078973;27;45460;-78
2021/10/16 05:53:07;;;;;;;;;21.00;15.50;;;;;;;;5077399;27;46497;-79
2021/10/16 05:55:32;;;;;;;;;12.50;10.75;;;;;;;;5075822;27;45419;-80
2021/10/16 05:57:57;;;;;;;;;18.25;17.75;;;;;;;;5075811;27;45383;-80
2021/10/16 06:00:23;;;;;;;;;23.00;21.75;;;;;;;;5071135;27;45459;-80
2021/10/16 06:02:48;;;;;;;;;18.75;12.75;;;;;;;;5078614;27;45248;-80
2021/10/16 06:05:13;;;;;;;;;19.75;19.25;;;;;;;;5076591;27;45449;-79
2021/10/16 06:07:38;;;;;;;;;20.00;16.50;;;;;;;;5076929;27;45403;-81
2021/10/16 06:10:04;;;;;;;;;20.75;18.50;;;;;;;;5076738;27;45433;-79
2021/10/16 06:12:29;;;;;;;;;15.75;14.75;;;;;;;;5073096;27;47419;-79
2021/10/16 06:14:54;;;;;;;;;20.50;17.75;;;;;;;;5077672;27;45354;-80
2021/10/16 06:17:19;;;;;;;;;19.50;17.00;;;;;;;;5077344;27;45785;-80
2021/10/16 06:19:45;;;;;;;;;21.00;18.25;;;;;;;;5077030;27;45444;-80
2021/10/16 06:22:11;;;;;;;;;18.25;17.00;;;;;;;;5076408;27;46023;-79
2021/10/16 06:24:36;;;;;;;;;21.50;17.75;;;;;;;;5074407;27;45360;-80
2021/10/16 06:27:01;;;;;;;;;20.50;16.75;;;;;;;;5075902;27;45439;-80
2021/10/16 06:29:26;;;;;;;;;22.75;19.00;;;;;;;;5077450;27;45441;-80
2021/10/16 06:31:51;;;;;;;;;30.00;28.25;;;;;;;;5076484;27;45389;-80
2021/10/16 06:34:17;;;;;;;;;25.25;20.00;;;;;;;;5056661;27;46064;-81
2021/10/16 06:36:42;;;;;;;;;18.75;14.75;;;;;;;;5073488;27;45397;-80
2021/10/16 06:39:07;;;;;;;;;20.75;17.75;;;;;;;;5074099;27;45386;-82
2021/10/16 06:41:32;;;;;;;;;12.25;12.25;;;;;;;;5078327;27;47720;-80
2021/10/16 06:43:57;;;;;;;;;21.50;19.00;;;;;;;;5075890;27;45475;-81
2021/10/16 06:46:23;;;;;;;;;14.25;13.50;;;;;;;;5076344;27;45405;-79
2021/10/16 06:48:49;;;;;;;;;21.50;16.00;;;;;;;;5075178;27;45426;-80
2021/10/16 06:51:14;;;;;;;;;18.00;18.00;;;;;;;;5072427;27;45636;-80
2021/10/16 06:53:39;;;;;;;;;19.50;15.75;;;;;;;;5079840;27;45378;-80
2021/10/16 06:56:04;;;;;;;;;18.50;18.50;;;;;;;;5079981;27;45471;-80
2021/10/16 06:58:30;;;;;;;;;27.25;25.50;;;;;;;;5079024;27;45212;-81
2021/10/16 07:00:55;;;;;;;;;23.75;19.75;;;;;;;;5079414;27;46259;-80
2021/10/16 07:03:20;;;;;;;;;22.50;21.50;;;;;;;;5074701;27;45208;-78
2021/10/16 07:05:45;;;;;;;;;20.25;14.25;;;;;;;;5081643;27;45213;-82
2021/10/16 07:08:10;;;;;;;;;18.00;15.00;;;;;;;;5078771;27;45371;-78
2021/10/16 07:10:38;;;;;;;;;21.00;18.00;;;;;;;;5078986;27;47003;-79
2021/10/16 07:13:03;;;;;;;;;26.50;23.25;;;;;;;;5077069;27;45351;-79
2021/10/16 07:15:29;;;;;;;;;17.00;16.00;;;;;;;;5074155;27;45582;-79
2021/10/16 07:17:54;;;;;;;;;22.25;21.00;;;;;;;;5080119;27;45382;-79
2021/10/16 07:20:20;;;;;;;;;21.00;19.25;;;;;;;;5079245;27;46114;-80
2021/10/16 07:22:45;;;;;;;;;21.25;19.25;;;;;;;;5078923;27;45587;-78
2021/10/16 07:25:10;;;;;;;;;22.00;20.75;;;;;;;;5079432;27;45631;-80
2021/10/16 07:27:35;;;;;;;;;20.75;18.25;;;;;;;;5057622;27;45746;-78
2021/10/16 07:30:01;;;;;;;;;20.00;18.75;;;;;;;;5077715;27;45546;-78
2021/10/16 07:32:26;;;;;;;;;26.50;19.75;;;;;;;;5079488;27;45384;-77
2021/10/16 07:34:51;;;;;;;;;20.75;17.75;;;;;;;;5078563;27;45612;-78
2021/10/16 07:37:17;;;;;;;;;21.00;19.50;;;;;;;;5078451;27;45295;-77
2021/10/16 07:39:42;;;;;;;;;20.00;20.00;;;;;;;;5076309;27;46156;-78
2021/10/16 07:42:07;;;;;;;;;19.75;18.00;;;;;;;;5074477;27;45548;-78
2021/10/16 07:44:32;;;;;;;;;23.75;20.00;;;;;;;;5080334;27;45509;-78
2021/10/16 07:46:57;;;;;;;;;16.75;15.25;;;;;;;;5078367;27;45461;-78
2021/10/16 07:49:23;;;;;;;;;26.75;21.50;;;;;;;;5078281;27;46973;-75
2021/10/16 07:51:48;;;;;;;;;15.75;15.75;;;;;;;;5075427;27;45581;-76
2021/10/16 07:54:13;;;;;;;;;18.00;18.00;;;;;;;;5074625;27;45264;-71
2021/10/16 07:56:38;;;;;;;;;20.00;17.50;;;;;;;;5078001;27;45503;-71
2021/10/16 07:59:03;;;;;;;;;23.75;19.25;;;;;;;;5074493;27;46296;-74
2021/10/16 08:01:29;;;;;;;;;22.50;20.75;;;;;;;;5075575;27;45502;-75
2021/10/16 08:03:54;;;;;;;;;19.00;15.00;;;;;;;;5077056;27;45563;-75
2021/10/16 08:06:20;;;;;;;;;22.25;17.50;;;;;;;;5071888;27;45363;-74
2021/10/16 08:08:45;;;;;;;;;16.75;15.50;;;;;;;;5079298;27;45484;-77
2021/10/16 08:11:10;;;;;;;;;18.50;13.75;;;;;;;;5076597;27;45256;-77
2021/10/16 08:13:36;;;;;;;;;16.75;16.75;;;;;;;;5077144;27;45289;-74
2021/10/16 08:16:01;;;;;;;;;15.75;14.75;;;;;;;;5077621;27;45331;-75
2021/10/16 08:18:26;;;;;;;;;24.25;21.00;;;;;;;;5073136;27;46437;-75
2021/10/16 08:20:52;;;;;;;;;26.25;22.25;;;;;;;;5078828;27;45193;-75
2021/10/16 08:23:17;;;;;;;;;16.00;13.50;;;;;;;;5076687;27;45571;-75
2021/10/16 08:25:42;;;;;;;;;16.25;14.00;;;;;;;;5077145;27;45672;-75
2021/10/16 08:28:09;;;;;;;;;18.25;18.00;;;;;;;;5077203;27;46089;-75
2021/10/16 08:30:34;;;;;;;;;17.75;13.75;;;;;;;;5072415;27;45470;-75
2021/10/16 08:32:59;;;;;;;;;17.75;16.00;;;;;;;;5077237;27;45351;-73
2021/10/16 08:35:24;;;;;;;;;22.50;19.00;;;;;;;;5076744;27;45473;-74
2021/10/16 08:37:50;;;;;;;;;21.25;18.00;;;;;;;;5075490;27;46729;-73
2021/10/16 08:40:15;;;;;;;;;18.75;16.75;;;;;;;;5076799;27;45348;-75
2021/10/16 08:42:40;;;;;;;;;15.75;14.00;;;;;;;;5074771;27;45387;-77
2021/10/16 08:45:06;;;;;;;;;17.25;15.00;;;;;;;;5075756;27;45335;-78
2021/10/16 08:47:35;;;;;;;;;15.25;15.25;;;;;;;;5080163;27;46873;-81
2021/10/16 08:50:02;;;;;;;;;16.75;14.75;;;;;;;;5079554;27;45345;-79
2021/10/16 08:52:27;;;;;;;;;15.25;15.25;;;;;;;;5059100;28;45511;-73
2021/10/16 08:54:53;;;;;;;;;13.00;11.50;;;;;;;;5076705;27;45474;-74
2021/10/16 08:57:20;;;;;;;;;14.50;13.75;;;;;;;;5072823;27;46107;-73
2021/10/16 08:59:45;;;;;;;;;15.50;15.00;;;;;;;;5078936;27;45401;-74
2021/10/16 09:02:10;;;;;;;;;20.75;17.25;;;;;;;;5076238;27;45316;-72
2021/10/16 09:04:36;;;;;;;;;21.00;21.00;;;;;;;;5076464;27;45383;-74
2021/10/16 09:07:17;;;;;;;;;16.00;14.50;;;;;;;;5076720;27;45651;-73
2021/10/16 09:09:43;;;;;;;;;20.00;18.25;;;;;;;;5073514;27;45338;-75
2021/10/16 09:12:10;;;;;;;;;21.25;18.25;;;;;;;;5073918;27;45631;-74
2021/10/16 09:14:44;;;;;;;;;20.00;16.00;;;;;;;;5076531;27;45374;-74
2021/10/16 09:17:11;;;;;;;;;16.50;15.75;;;;;;;;5075954;27;46392;-72
2021/10/16 09:19:40;;;;;;;;;8.50;8.50;;;;;;;;5076494;27;45508;-73
2021/10/16 09:22:06;;;;;;;;;17.00;16.75;;;;;;;;5076301;27;45643;-75
2021/10/16 09:24:33;;;;;;;;;26.75;26.50;;;;;;;;5073028;27;45485;-75
2021/10/16 09:27:03;;;;;;;;;20.25;19.50;;;;;;;;5076124;27;46359;-74
2021/10/16 09:29:30;;;;;;;;;17.75;16.00;;;;;;;;5077362;27;45487;-74
2021/10/16 09:31:57;;;;;;;;;18.00;16.75;;;;;;;;5076572;27;45304;-74
2021/10/16 09:34:32;;;;;;;;;19.00;17.00;;;;;;;;5074914;27;45228;-73
2021/10/16 09:37:01;;;;;;;;;18.25;16.50;;;;;;;;5075897;27;47553;-74
2021/10/16 09:39:26;;;;;;;;;18.25;17.25;;;;;;;;5071991;27;45475;-74
2021/10/16 09:41:51;;;;;;;;;30.75;30.25;;;;;;;;5076987;27;45442;-74
2021/10/16 09:44:22;;;;;;;;;20.25;18.50;;;;;;;;5073889;27;45398;-73
2021/10/16 09:46:56;;;;;;;;;20.25;18.50;;;;;;;;5076078;27;45912;-74
2021/10/16 09:49:27;;;;;;;;;17.00;17.00;;;;;;;;5074244;27;45403;-73
2021/10/16 09:51:52;;;;;;;;;17.75;15.00;;;;;;;;5073876;27;45588;-74
2021/10/16 09:54:17;;;;;;;;;29.00;22.75;;;;;;;;5072141;27;45338;-74
2021/10/16 09:56:43;;;;;;;;;20.75;19.00;;;;;;;;5078168;27;45364;-74
2021/10/16 09:59:10;;;;;;;;;16.75;16.00;;;;;;;;5075786;27;45355;-74
2021/10/16 10:01:36;;;;;;;;;14.00;12.75;;;;;;;;5075688;27;45454;-74
2021/10/16 10:04:03;;;;;;;;;11.75;11.75;;;;;;;;5075474;27;45411;-74
2021/10/16 10:06:29;;;;;;;;;16.25;14.00;;;;;;;;5071134;27;45393;-74
2021/10/16 10:08:56;;;;;;;;;12.50;11.25;;;;;;;;5077073;27;45336;-73
2021/10/16 10:11:21;;;;;;;;;10.75;9.50;;;;;;;;5074745;27;45430;-74
2021/10/16 10:13:49;;;;;;;;;16.75;16.75;;;;;;;;5075240;27;45468;-75
2021/10/16 10:16:15;;;;;;;;;14.50;14.50;;;;;;;;5075459;27;45335;-73
2021/10/16 10:21:28;;;;;;;;;17.00;15.25;;;;;;;;5055144;28;45260;-74
2021/10/16 10:23:55;;;;;;;;;9.50;7.50;;;;;;;;5085900;27;45333;-73
2021/10/16 10:26:25;;;;;;;;;15.25;12.50;;;;;;;;5075769;27;46626;-73
2021/10/16 10:28:55;;;;;;;;;9.00;9.00;;;;;;;;5075522;27;45263;-74
2021/10/16 10:31:38;;;;;;;;;11.25;9.00;;;;;;;;5077377;27;45480;-74
2021/10/16 10:34:03;;;;;;;;;9.00;9.00;;;;;;;;5079030;27;45297;-74
2021/10/16 10:36:29;;;;;;;;;12.75;9.75;;;;;;;;5074956;27;46148;-74
2021/10/16 10:38:54;;;;;;;;;7.25;6.00;;;;;;;;5080596;27;45463;-75
2021/10/16 10:41:22;;;;;;;;;13.25;11.75;;;;;;;;5086680;27;45307;-74
2021/10/16 10:43:47;;;;;;;;;9.00;7.50;;;;;;;;5083957;27;45342;-75
2021/10/16 10:46:13;;;;;;;;;9.75;8.75;;;;;;;;5078936;27;45420;-74
2021/10/16 10:48:42;;;;;;;;;4.00;3.75;;;;;;;;5057690;27;45474;-72
2021/10/16 10:51:08;;;;;;;;;9.00;7.50;;;;;;;;5076751;27;45284;-73
2021/10/16 10:53:34;;;;;;;;;11.00;9.50;;;;;;;;5080865;27;45297;-75
2021/10/16 10:56:04;;;;;;;;;10.50;8.75;;;;;;;;5078501;27;46253;-75
2021/10/16 10:58:49;;;;;;;;;11.50;10.25;;;;;;;;5078498;27;45328;-74
2021/10/16 11:01:33;;;;;;;;;11.50;10.25;;;;;;;;5077477;27;45446;-73
2021/10/16 11:04:02;;;;;;;;;9.75;9.75;;;;;;;;5078039;27;45433;-73
2021/10/16 11:06:27;;;;;;;;;4.67;4.00;;;;;;;;5072895;27;46183;-77
2021/10/16 11:08:52;;;;;;;;;6.00;6.00;;;;;;;;5079900;27;45287;-75
2021/10/16 11:11:17;;;;;;;;;10.75;8.50;;;;;;;;5077131;27;45624;-74
2021/10/16 11:13:43;;;;;;;;;7.00;7.00;;;;;;;;5077559;27;45281;-73
2021/10/16 11:16:08;;;;;;;;;6.00;6.00;;;;;;;;5076563;27;45374;-74
2021/10/16 11:18:34;;;;;;;;;8.00;7.00;;;;;;;;5075058;27;45516;-74
2021/10/16 11:21:03;;;;;;;;;6.00;6.00;;;;;;;;5078900;27;45303;-74
2021/10/16 11:23:28;;;;;;;;;9.67;9.67;;;;;;;;5079230;27;45320;-74
2021/10/16 11:26:00;;;;;;;;;10.67;6.00;;;;;;;;5078064;27;45376;-74
2021/10/16 11:28:26;;;;;;;;;3.00;3.00;;;;;;;;5078012;27;45422;-73
2021/10/16 11:30:54;;;;;;;;;6.33;5.67;;;;;;;;5077945;27;45609;-74
2021/10/16 11:33:20;;;;;;;;;4.67;4.67;;;;;;;;5073528;27;45439;-74
2021/10/16 11:35:47;;;;;;;;;3.00;3.00;;;;;;;;5080160;27;46211;-74
2021/10/16 11:38:13;;;;;;;;;3.33;3.33;;;;;;;;5078209;27;45429;-74
2021/10/16 11:40:39;;;;;;;;;5.00;2.00;;;;;;;;5077784;27;45511;-74
2021/10/16 11:43:12;;;;;;;;;3.67;2.00;;;;;;;;5077853;27;45361;-75
2021/10/16 11:45:38;;;;;;;;;4.67;3.00;;;;;;;;5073444;27;46198;-73
2021/10/16 11:48:06;;;;;;;;;4.67;4.00;;;;;;;;5076052;27;49524;-74
2021/10/16 11:50:35;;;;;;;;;4.00;4.00;;;;;;;;5077128;27;45312;-74
2021/10/16 11:53:08;;;;;;;;;2.33;2.33;;;;;;;;5077414;27;45224;-75
2021/10/16 11:55:34;;;;;;;;;5.00;2.67;;;;;;;;5076863;27;46725;-74
2021/10/16 11:58:03;;;;;;;;;3.00;3.00;;;;;;;;5075499;27;45423;-74
2021/10/16 12:00:29;;;;;;;;;2.67;2.00;;;;;;;;5073229;27;45304;-74
2021/10/16 12:02:56;;;;;;;;;2.00;2.00;;;;;;;;5059345;28;45446;-73
2021/10/16 12:05:22;;;;;;;;;7.67;6.33;;;;;;;;5077076;27;45458;-74
2021/10/16 12:07:47;;;;;;;;;4.00;4.00;;;;;;;;5076948;27;45588;-74
2021/10/16 12:10:16;;;;;;;;;6.00;6.00;;;;;;;;5076883;27;45384;-73
2021/10/16 12:12:54;;;;;;;;;12.33;12.33;;;;;;;;5074635;27;45478;-74
2021/10/16 12:15:19;;;;;;;;;3.33;3.33;;;;;;;;5072185;27;45571;-75
2021/10/16 12:17:45;;;;;;;;;6.00;6.00;;;;;;;;5077753;27;45350;-75
2021/10/16 12:20:10;;;;;;;;;5.00;5.00;;;;;;;;5076714;27;45642;-75
2021/10/16 12:22:37;;;;;;;;;5.67;4.67;;;;;;;;5076660;27;45240;-74
2021/10/16 12:25:02;;;;;;;;;25.25;21.75;;;;;;;;5075299;27;46244;-74
2021/10/16 12:27:29;;;;;;;;;9.67;7.00;;;;;;;;5071439;27;45579;-75
2021/10/16 12:29:54;;;;;;;;;5.00;5.00;;;;;;;;5077042;27;45511;-74
2021/10/16 12:32:21;;;;;;;;;8.00;4.67;;;;;;;;5075595;27;45380;-75
2021/10/16 12:34:51;;;;;;;;;2.67;2.67;;;;;;;;5075746;27;46908;-75
2021/10/16 12:37:16;;;;;;;;;4.00;3.33;;;;;;;;5075954;27;45382;-75
2021/10/16 12:39:43;;;;;;;;;9.67;8.67;;;;;;;;5074299;27;45411;-75
2021/10/16 12:42:10;;;;;;;;;2.67;2.67;;;;;;;;5073797;27;45303;-74
2021/10/16 12:44:36;;;;;;;;;6.00;5.33;;;;;;;;5076214;27;46273;-74
2021/10/16 12:47:06;;;;;;;;;3.00;3.00;;;;;;;;5076343;27;45448;-75
2021/10/16 12:49:36;;;;;;;;;3.00;3.00;;;;;;;;5076513;27;45304;-74
2021/10/16 12:52:02;;;;;;;;;2.67;2.67;;;;;;;;5057085;27;45336;-75
2021/10/16 12:54:32;;;;;;;;;5.00;5.00;;;;;;;;5071737;27;46196;-75
2021/10/16 12:57:01;;;;;;;;;2.67;2.67;;;;;;;;5076486;27;45372;-75
2021/10/16 12:59:26;;;;;;;;;7.33;5.67;;;;;;;;5076637;27;45545;-74
2021/10/16 13:01:51;;;;;;;;;6.67;5.00;;;;;;;;5075554;27;45420;-75
2021/10/16 13:04:16;;;;;;;;;3.00;3.00;;;;;;;;5074661;27;46191;-75
2021/10/16 13:06:41;;;;;;;;;6.00;5.00;;;;;;;;5074406;27;45450;-75
2021/10/16 13:09:07;;;;;;;;;1.00;1.00;;;;;;;;5055747;28;45439;-75
2021/10/16 13:11:32;;;;;;;;;0.33;0.33;;;;;;;;5077733;27;45601;-74
2021/10/16 13:13:58;;;;;;;;;3.00;3.00;;;;;;;;5075254;27;47048;-73
2021/10/16 13:16:24;;;;;;;;;1.00;1.00;;;;;;;;5075939;27;45550;-73
2021/10/16 13:18:49;;;;;;;;;3.00;2.00;;;;;;;;5075067;27;45392;-74
2021/10/16 13:21:14;;;;;;;;;1.67;1.67;;;;;;;;5072543;27;45437;-74
2021/10/16 13:23:39;;;;;;;;;3.00;3.00;;;;;;;;5077729;27;45263;-74
2021/10/16 13:26:04;;;;;;;;;0.33;0.33;;;;;;;;5076182;27;45177;-76
2021/10/16 13:28:30;;;;;;;;;5.00;4.33;;;;;;;;5075748;27;45217;-77
2021/10/16 13:30:55;;;;;;;;;3.00;1.00;;;;;;;;5076085;27;45427;-75
2021/10/16 13:33:22;;;;;;;;;4.75;3.00;;;;;;;;5071830;27;45391;-74
2021/10/16 13:35:47;;;;;;;;;2.67;2.00;;;;;;;;5077563;27;45467;-75
2021/10/16 13:38:12;;;;;;;;;2.33;2.33;;;;;;;;5076036;27;45637;-74
2021/10/16 13:40:37;;;;;;;;;1.67;1.67;;;;;;;;5076732;27;45462;-74
2021/10/16 13:43:03;;;;;;;;;0.67;0.67;;;;;;;;5074443;27;46195;-73
2021/10/16 13:45:28;;;;;;;;;2.33;2.33;;;;;;;;5070788;27;45348;-75
2021/10/16 13:47:53;;;;;;;;;4.00;2.00;;;;;;;;5077635;27;45529;-73
2021/10/16 13:50:18;;;;;;;;;4.00;4.00;;;;;;;;5076118;27;45559;-75
2021/10/16 13:52:43;;;;;;;;;3.67;3.00;;;;;;;;5076348;27;47210;-75
2021/10/16 13:55:09;;;;;;;;;2.00;1.33;;;;;;;;5076231;27;45501;-74
2021/10/16 13:57:34;;;;;;;;;1.00;1.00;;;;;;;;5072755;27;45425;-74
2021/10/16 13:59:59;;;;;;;;;3.00;2.67;;;;;;;;5076057;27;45506;-74
2021/10/16 14:02:25;;;;;;;;;3.67;2.67;;;;;;;;5077679;27;46419;-74
2021/10/16 14:04:50;;;;;;;;;1.33;1.00;;;;;;;;5079455;27;45417;-74
2021/10/16 14:07:15;;;;;;;;;1.00;1.00;;;;;;;;5078971;27;45449;-74
2021/10/16 14:09:40;;;;;;;;;3.00;2.00;;;;;;;;5077387;27;45635;-75
2021/10/16 14:12:06;;;;;;;;;2.67;1.00;;;;;;;;5077713;27;45428;-74
2021/10/16 14:14:31;;;;;;;;;1.33;1.33;;;;;;;;5081121;27;45366;-74
2021/10/16 14:16:56;;;;;;;;;1.00;1.00;;;;;;;;5079894;27;45761;-75
2021/10/16 14:19:22;;;;;;;;;1.33;1.00;;;;;;;;5079980;27;45434;-74